Pagrindinis puslapis
METAR-TAF:

METAR-TAF

Oro uostai :

Point Hope, Aliaska, Jungtinės Amerikos Valstijos

platuma: 68-21N, ilguma: 166-48W, Aukštis: 4 m

Dabartinis oras

Ataskaita buvo paskelbta 26 minutes, ne 20:56 UTC
Vėjas 7 kt iš Rytų/Šiaurės Rytų
Temperatūra 4°C
Drėgmė 87%
Slėgis 1001 hPa
Matomumas: 16.1 km
Su prošvaistėmis ne aukštis 2000 ft
Apsiniaukę ne aukštis 2600 ft
lietus

METAR: PAPO 212056Z AUTO 06007KT 10SM -RA BKN020 OVC026 04/02 A2955 RMK AO2 SLP005 P0001 60002 T00390022 53007

Laikas: 13:22 (21:22 UTC)


TAF: trūkstamas

Orai ataskaitas ir orų prognozės (METAR, TAF).

turimą stotys yra geltonos ir raudonos taškus žemėlapyje.

Perkelti pele per norėdami pamatyti stoties vardą.

Tada spustelėkite, norėdami matyti oro stebėjimo ir prognozės.

Norėdami pakeisti žemėlapį: spustelėkite ant žalios mygtukų su juodo kryžiaus žemyn,; žalią mygtuką su brūkšneliu, jei norite nutolinti; arba žalių rodyklių gretimoms žemėlapius.


METAR-TAF: